Time;durP1;ratioP1;P1;durP2;ratioP2;P2;SDS_P1;SDS_P2;PMS_P1;PMS_P2;Temp;Humidity;BMP_temperature;BMP_pressure;BME280_temperature;BME280_humidity;BME280_pressure;Samples;Min_cycle;Max_cycle;Signal;HPM_P1;HPM_P2
2022/04/16 00:01:33;;;;;;;16.53;11.60;;;;;;;7.65;33.85;101930.19;10507965;28;20276;-81
2022/04/16 00:06:36;;;;;;;15.57;11.93;;;;;;;7.33;34.46;101921.97;10497747;28;20288;-81
2022/04/16 00:11:38;;;;;;;15.37;12.73;;;;;;;7.39;34.13;101926.34;10521400;28;20233;-84
2022/04/16 00:16:41;;;;;;;16.80;13.27;;;;;;;7.45;34.39;101925.06;10508298;28;20261;-82
2022/04/16 00:21:43;;;;;;;15.83;13.13;;;;;;;7.71;33.86;101923.22;10503136;28;20870;-83
2022/04/16 00:26:46;;;;;;;18.70;14.10;;;;;;;7.52;34.20;101924.56;10517013;28;20808;-84
2022/04/16 00:31:48;;;;;;;14.67;13.00;;;;;;;7.38;34.12;101922.66;10507139;28;20268;-84
2022/04/16 00:36:50;;;;;;;21.40;14.20;;;;;;;7.34;34.30;101921.63;10515355;28;20596;-84
2022/04/16 00:41:53;;;;;;;17.17;14.90;;;;;;;7.77;33.61;101910.56;10506965;28;20227;-81
2022/04/16 00:46:55;;;;;;;19.87;14.77;;;;;;;7.85;33.46;101905.28;10511180;28;20287;-84
2022/04/16 00:51:58;;;;;;;18.17;14.47;;;;;;;7.26;34.53;101921.56;10487528;28;20227;-84
2022/04/16 00:57:00;;;;;;;16.27;13.80;;;;;;;7.01;34.60;101925.88;10486959;28;20250;-84
2022/04/16 01:02:02;;;;;;;20.47;14.90;;;;;;;7.33;34.21;101921.97;10460512;28;20309;-83
2022/04/16 01:07:07;;;;;;;17.67;14.43;;;;;;;6.85;34.73;101928.19;10479552;28;20731;-84
2022/04/16 01:12:10;;;;;;;21.07;15.37;;;;;;;7.07;34.73;101918.94;10480237;28;20235;-81
2022/04/16 01:17:13;;;;;;;18.23;14.50;;;;;;;6.99;34.45;101916.84;10476337;28;20296;-82
2022/04/16 01:22:15;;;;;;;16.97;14.63;;;;;;;6.49;35.53;101933.00;10488312;28;20591;-85
2022/04/16 01:27:18;;;;;;;19.00;15.27;;;;;;;6.62;35.32;101924.47;10455286;28;20546;-84
2022/04/16 01:32:20;;;;;;;18.07;14.93;;;;;;;6.62;35.41;101929.31;10471981;28;20608;-84
2022/04/16 01:37:23;;;;;;;19.57;15.77;;;;;;;6.83;34.89;101924.84;10473600;28;20258;-84
2022/04/16 01:42:25;;;;;;;19.93;15.87;;;;;;;6.98;34.74;101930.16;10479542;28;20566;-83
2022/04/16 01:47:28;;;;;;;17.77;14.83;;;;;;;7.08;34.44;101932.75;10473825;28;20304;-82
2022/04/16 01:52:30;;;;;;;20.00;15.00;;;;;;;6.88;34.44;101933.22;10472874;28;20281;-82
2022/04/16 01:57:32;;;;;;;17.77;14.93;;;;;;;6.90;34.24;101935.75;10480059;28;20247;-82
2022/04/16 02:02:36;;;;;;;19.77;16.63;;;;;;;6.99;34.42;101940.38;10465398;28;20265;-82
2022/04/16 02:07:39;;;;;;;21.57;16.47;;;;;;;6.32;35.56;101942.97;10492788;28;20225;-83
2022/04/16 02:12:41;;;;;;;24.67;16.53;;;;;;;6.70;34.99;101949.22;10486926;28;20547;-82
2022/04/16 02:17:43;;;;;;;20.27;17.33;;;;;;;6.83;35.00;101950.34;10488262;28;20690;-82
2022/04/16 02:22:46;;;;;;;23.07;18.03;;;;;;;7.23;34.93;101940.06;10485000;28;20673;-82
2022/04/16 02:27:48;;;;;;;21.27;17.77;;;;;;;7.03;35.20;101955.59;10470163;28;20203;-83
2022/04/16 02:32:55;;;;;;;24.00;17.50;;;;;;;6.61;36.04;101950.28;10468437;28;20222;-82
2022/04/16 02:37:57;;;;;;;22.27;18.30;;;;;;;7.03;35.34;101955.59;10489246;28;20340;-82
2022/04/16 02:42:59;;;;;;;25.73;18.33;;;;;;;7.61;34.78;101962.34;10484028;28;20608;-82
2022/04/16 02:48:02;;;;;;;25.23;19.50;;;;;;;7.07;35.77;101973.63;10488083;28;20547;-85
2022/04/16 02:53:04;;;;;;;26.27;19.90;;;;;;;7.80;34.54;101965.84;10487115;28;20195;-81
2022/04/16 02:58:06;;;;;;;23.57;19.80;;;;;;;7.44;34.85;101975.28;10488055;28;20215;-82
2022/04/16 03:03:08;;;;;;;24.43;19.47;;;;;;;7.57;34.71;101979.22;10485397;28;20499;-81
2022/04/16 03:08:12;;;;;;;22.33;18.43;;;;;;;7.17;34.80;101978.22;10480279;28;20191;-81
2022/04/16 03:13:14;;;;;;;25.40;18.33;;;;;;;7.37;34.55;101985.38;10457668;28;20592;-82
2022/04/16 03:18:17;;;;;;;23.30;18.40;;;;;;;6.86;34.66;101992.22;10501950;28;20273;-82
2022/04/16 03:23:19;;;;;;;21.50;17.23;;;;;;;5.83;36.70;101993.75;10479979;28;20278;-82
2022/04/16 03:28:21;;;;;;;23.57;17.53;;;;;;;7.12;35.07;101989.69;10463741;28;20231;-82
2022/04/16 03:33:23;;;;;;;19.30;16.60;;;;;;;7.25;35.40;101976.59;10462616;28;20231;-82
2022/04/16 03:38:25;;;;;;;21.57;16.50;;;;;;;7.31;35.02;101976.19;10476661;28;20247;-82
2022/04/16 03:43:29;;;;;;;22.20;17.70;;;;;;;7.39;34.27;101980.22;10479624;28;20254;-82
2022/04/16 03:48:31;;;;;;;22.43;18.40;;;;;;;7.09;34.80;101982.63;10481205;28;20238;-83
2022/04/16 03:53:34;;;;;;;23.37;17.70;;;;;;;7.31;34.57;101987.53;10479037;28;20232;-82
2022/04/16 04:03:57;;;;;;;24.67;18.13;;;;;;;6.62;35.16;102002.97;10477220;28;20242;-81
2022/04/16 04:08:59;;;;;;;20.90;17.00;;;;;;;6.90;34.55;102004.63;10478826;28;20219;-82
2022/04/16 04:14:01;;;;;;;23.40;17.93;;;;;;;7.02;34.31;102007.78;10480156;28;20654;-82
2022/04/16 04:19:03;;;;;;;20.40;16.93;;;;;;;6.66;34.96;102021.03;10472916;28;20281;-83
2022/04/16 04:24:05;;;;;;;22.13;17.33;;;;;;;6.54;35.35;102032.06;10476798;28;20739;-84
2022/04/16 04:29:07;;;;;;;24.10;18.23;;;;;;;6.66;35.58;102030.38;10489582;28;20219;-82
2022/04/16 04:34:09;;;;;;;25.60;19.27;;;;;;;6.94;35.10;102028.31;10474975;28;20278;-84
2022/04/16 04:39:12;;;;;;;24.20;18.37;;;;;;;6.73;35.17;102041.25;10494321;28;20558;-84
2022/04/16 04:44:15;;;;;;;24.50;18.83;;;;;;;6.44;35.60;102046.41;10462961;28;20226;-83
2022/04/16 04:49:17;;;;;;;20.00;16.53;;;;;;;6.43;35.60;102050.38;10474410;28;20199;-83
2022/04/16 04:54:21;;;;;;;21.90;18.57;;;;;;;6.33;36.04;102062.75;10464505;28;20263;-82
2022/04/16 04:59:23;;;;;;;23.00;17.90;;;;;;;6.59;35.21;102072.44;10466347;28;20224;-82
2022/04/16 05:04:25;;;;;;;20.80;18.30;;;;;;;6.02;35.89;102079.47;10458981;28;20203;-82
2022/04/16 05:09:28;;;;;;;24.67;18.87;;;;;;;6.07;36.08;102087.84;10478565;28;20304;-82
2022/04/16 05:14:30;;;;;;;24.07;18.47;;;;;;;6.61;35.30;102089.13;10476401;28;20242;-82
2022/04/16 05:19:32;;;;;;;25.87;19.50;;;;;;;6.83;34.97;102089.22;10510676;28;20264;-83
2022/04/16 05:24:34;;;;;;;23.77;20.07;;;;;;;6.66;35.79;102098.38;10516921;28;20222;-82
2022/04/16 05:29:56;;;;;;;25.97;19.77;;;;;;;6.81;35.75;102097.19;10496877;28;20595;-84
2022/04/16 05:34:59;;;;;;;24.80;19.50;;;;;;;7.21;35.12;102091.84;10510458;28;20292;-85
2022/04/16 05:40:06;;;;;;;24.23;20.00;;;;;;;7.46;34.99;102099.75;10482712;28;20588;-83
2022/04/16 05:45:09;;;;;;;26.70;20.37;;;;;;;6.42;37.05;102103.38;10490267;28;20260;-82
2022/04/16 05:50:12;;;;;;;25.70;20.27;;;;;;;6.99;35.97;102110.47;10492429;28;20664;-81
2022/04/16 05:55:14;;;;;;;27.97;21.87;;;;;;;6.48;36.57;102126.78;10484391;28;20254;-82
2022/04/16 06:00:16;;;;;;;27.20;21.30;;;;;;;7.04;36.23;102121.72;10471029;28;20276;-81
2022/04/16 06:05:21;;;;;;;28.43;22.27;;;;;;;6.90;36.62;102129.34;10455213;28;20231;-82
2022/04/16 06:10:23;;;;;;;29.37;21.80;;;;;;;7.26;36.00;102131.44;10479028;28;20673;-82
2022/04/16 06:15:25;;;;;;;26.13;21.07;;;;;;;6.95;36.66;102132.06;10504740;28;20219;-82
2022/04/16 06:20:27;;;;;;;27.87;21.13;;;;;;;7.24;36.65;102128.06;10504123;28;20605;-82
2022/04/16 06:25:29;;;;;;;24.53;19.13;;;;;;;7.20;36.81;102129.88;10439715;28;20351;-80
2022/04/16 06:30:32;;;;;;;21.57;17.27;;;;;;;6.95;37.29;102132.06;10477577;28;20268;-81
2022/04/16 06:35:34;;;;;;;22.63;15.70;;;;;;;7.29;36.75;102136.50;10486566;28;20825;-82
2022/04/16 06:40:37;;;;;;;18.77;15.20;;;;;;;6.35;38.32;102151.94;10470107;28;20281;-82
2022/04/16 06:45:39;;;;;;;22.07;16.37;;;;;;;7.46;36.01;102142.31;10489941;28;20219;-81
2022/04/16 06:50:41;;;;;;;21.37;14.43;;;;;;;7.04;36.53;102140.72;10477657;28;20281;-81
2022/04/16 06:55:44;;;;;;;16.33;12.80;;;;;;;6.16;37.89;102148.25;10494218;28;20332;-81
2022/04/16 07:00:46;;;;;;;19.60;13.07;;;;;;;6.05;38.59;102141.09;10484245;28;20576;-81
2022/04/16 07:05:48;;;;;;;18.10;13.40;;;;;;;7.15;35.74;102130.00;10498401;28;20756;-81
2022/04/16 07:10:50;;;;;;;17.17;13.87;;;;;;;6.72;36.42;102135.94;10496219;28;20226;-81
2022/04/16 07:15:52;;;;;;;17.97;12.83;;;;;;;6.15;37.98;102143.78;10496854;28;20308;-81
2022/04/16 07:20:54;;;;;;;15.33;12.53;;;;;;;7.77;34.63;102142.50;10486649;28;20234;-83
2022/04/16 07:25:57;;;;;;;16.60;13.30;;;;;;;7.44;35.58;102141.81;10475380;28;20266;-82
2022/04/16 07:30:59;;;;;;;15.77;13.80;;;;;;;7.36;35.97;102142.56;10494315;28;20230;-82
2022/04/16 07:36:02;;;;;;;16.63;12.57;;;;;;;7.10;35.35;102140.28;10493397;28;20324;-82
2022/04/16 07:41:04;;;;;;;16.00;13.30;;;;;;;8.73;33.09;102139.16;10510793;28;20225;-82
2022/04/16 07:46:06;;;;;;;16.57;12.67;;;;;;;7.59;34.49;102138.59;10479169;28;20489;-81
2022/04/16 07:51:09;;;;;;;15.70;12.77;;;;;;;9.16;32.23;102134.47;10505103;28;20245;-81
2022/04/16 07:56:11;;;;;;;18.93;13.90;;;;;;;8.13;34.47;102139.59;10499771;28;20264;-82
2022/04/16 08:01:13;;;;;;;14.63;11.47;;;;;;;9.54;31.75;102139.59;10516341;28;20242;-82
2022/04/16 08:06:16;;;;;;;15.40;12.23;;;;;;;8.14;33.09;102156.31;10487554;28;20234;-81
2022/04/16 08:11:18;;;;;;;13.33;10.57;;;;;;;8.82;32.30;102162.78;10508363;28;20261;-81
2022/04/16 08:16:20;;;;;;;13.77;11.50;;;;;;;8.37;32.70;102162.81;10477057;28;20289;-84
2022/04/16 08:21:22;;;;;;;13.00;11.20;;;;;;;9.32;31.18;102156.78;10475916;28;20212;-82
2022/04/16 08:26:25;;;;;;;14.03;11.20;;;;;;;10.06;30.20;102153.88;10490851;28;20233;-82
2022/04/16 08:31:27;;;;;;;16.07;11.07;;;;;;;9.23;31.40;102161.63;10494112;28;20302;-83
2022/04/16 08:36:29;;;;;;;14.73;11.83;;;;;;;8.40;32.16;102178.38;10489213;28;20324;-83
2022/04/16 08:41:32;;;;;;;13.77;10.67;;;;;;;9.32;31.90;102179.56;10497064;28;20230;-83
2022/04/16 08:46:35;;;;;;;12.80;10.30;;;;;;;9.61;31.24;102174.13;10490084;28;20238;-84
2022/04/16 08:51:37;;;;;;;13.73;8.40;;;;;;;8.85;30.05;102187.72;10509968;28;20231;-84
2022/04/16 08:56:39;;;;;;;11.50;8.83;;;;;;;10.19;29.16;102164.25;10498337;28;20258;-81
2022/04/16 09:01:42;;;;;;;11.47;9.00;;;;;;;9.17;30.59;102187.34;10514907;28;20226;-84
2022/04/16 09:06:55;;;;;;;10.83;7.83;;;;;;;9.43;29.30;102178.91;10498538;28;20464;-84
2022/04/16 09:11:58;;;;;;;9.17;6.37;;;;;;;9.53;29.33;102172.09;10493631;28;20218;-84
2022/04/16 09:17:00;;;;;;;10.53;7.67;;;;;;;9.62;29.21;102177.78;10488277;28;20604;-84
2022/04/16 09:22:02;;;;;;;6.07;5.37;;;;;;;9.30;28.59;102179.88;10503292;28;20665;-82
2022/04/16 09:27:07;;;;;;;7.10;5.47;;;;;;;10.08;27.87;102168.63;10507860;28;20225;-83
2022/04/16 09:32:21;;;;;;;7.10;5.53;;;;;;;10.53;28.13;102169.09;10498022;28;20245;-81
2022/04/16 09:37:26;;;;;;;6.80;4.87;;;;;;;10.33;27.37;102173.47;10509423;28;20261;-81
2022/04/16 09:42:28;;;;;;;7.53;5.50;;;;;;;8.04;29.64;102172.78;10497628;28;20523;-81
2022/04/16 09:47:33;;;;;;;5.80;4.90;;;;;;;10.25;27.58;102166.63;10504638;28;20279;-81
2022/04/16 09:52:36;;;;;;;5.87;4.33;;;;;;;11.63;25.62;102157.50;10485079;28;20234;-84
2022/04/16 09:57:40;;;;;;;6.27;4.17;;;;;;;9.35;27.81;102164.69;10465468;28;20317;-84
2022/04/16 10:02:43;;;;;;;5.40;3.87;;;;;;;10.33;26.74;102164.91;10466953;28;20299;-82
2022/04/16 10:07:46;;;;;;;5.07;4.47;;;;;;;9.54;27.17;102170.91;10501334;28;20226;-83
2022/04/16 10:12:59;;;;;;;6.97;5.00;;;;;;;10.03;26.76;102168.81;10501966;28;20227;-83
2022/04/16 10:18:02;;;;;;;7.20;4.77;;;;;;;10.42;27.07;102171.47;10520309;28;20279;-84
2022/04/16 10:23:05;;;;;;;4.83;3.93;;;;;;;10.28;25.81;102176.50;10490293;28;20291;-82
2022/04/16 10:28:16;;;;;;;5.10;3.90;;;;;;;10.28;26.75;102165.09;10474159;28;20219;-83
2022/04/16 10:33:24;;;;;;;4.87;3.57;;;;;;;10.07;25.50;102153.53;10419552;28;20260;-83
2022/04/16 10:38:31;;;;;;;6.80;3.87;;;;;;;10.35;25.23;102156.88;10472460;28;20732;-84
2022/04/16 10:43:34;;;;;;;6.43;4.47;;;;;;;11.23;23.47;102151.34;10460467;28;20235;-83
2022/04/16 10:48:41;;;;;;;5.87;3.67;;;;;;;11.17;23.25;102152.75;10448784;28;20673;-83
2022/04/16 10:53:43;;;;;;;5.43;3.70;;;;;;;11.08;23.29;102154.81;10449243;28;20231;-82
2022/04/16 10:58:48;;;;;;;4.57;3.90;;;;;;;9.71;24.26;102159.53;10466710;28;20348;-83
2022/04/16 11:03:50;;;;;;;4.07;3.17;;;;;;;10.97;23.29;102160.06;10465656;28;20230;-83
2022/04/16 11:08:57;;;;;;;4.00;2.80;;;;;;;10.56;23.43;102148.44;10482229;28;20226;-83
2022/04/16 11:14:00;;;;;;;6.07;2.77;;;;;;;11.06;22.36;102139.22;10485282;28;20288;-81
2022/04/16 11:19:11;;;;;;;3.27;2.57;;;;;;;10.45;22.78;102139.41;10438582;28;20304;-81
2022/04/16 11:24:14;;;;;;;4.20;2.43;;;;;;;11.03;22.19;102137.03;10433172;28;20289;-81
2022/04/16 11:34:37;;;;;;;2.70;1.90;;;;;;;11.66;20.34;102136.00;10444175;28;20282;-82
2022/04/16 11:40:08;;;;;;;2.43;2.13;;;;;;;11.03;21.44;102129.31;10456202;28;20254;-82
2022/04/16 11:45:10;;;;;;;3.30;1.93;;;;;;;10.68;22.68;102139.22;10449784;28;20324;-81
2022/04/16 11:50:13;;;;;;;2.40;1.40;;;;;;;11.36;20.20;102134.34;10385328;28;20294;-81
2022/04/16 11:55:17;;;;;;;4.60;1.43;;;;;;;11.51;19.64;102126.03;10394984;28;20321;-82
2022/04/16 12:00:21;;;;;;;2.30;1.50;;;;;;;12.09;19.68;102115.66;10456518;28;20257;-80
2022/04/16 12:05:28;;;;;;;2.73;1.23;;;;;;;11.88;20.18;102121.34;10446256;28;20331;-82
2022/04/16 12:10:31;;;;;;;2.67;1.50;;;;;;;11.42;20.12;102130.13;10448340;28;20227;-81
2022/04/16 12:15:33;;;;;;;2.03;1.53;;;;;;;12.04;19.10;102125.28;10454034;28;20231;-82
2022/04/16 12:20:41;;;;;;;1.47;1.17;;;;;;;12.76;18.62;102111.56;10438523;28;20244;-81
2022/04/16 12:25:44;;;;;;;1.73;1.00;;;;;;;12.50;18.38;102106.13;10453043;28;20228;-82
2022/04/16 12:30:50;;;;;;;0.70;0.60;;;;;;;12.19;19.37;102109.50;10451174;28;20596;-81
2022/04/16 12:35:56;;;;;;;2.93;0.80;;;;;;;12.41;18.30;102108.25;10443412;28;20250;-82
2022/04/16 12:41:05;;;;;;;3.77;0.90;;;;;;;11.49;18.47;102101.84;10445335;28;20716;-82
2022/04/16 12:46:07;;;;;;;1.50;0.70;;;;;;;10.38;18.27;102102.03;10457314;28;20241;-82
2022/04/16 12:51:10;;;;;;;1.20;0.87;;;;;;;10.76;19.23;102098.41;10432428;28;20253;-81
2022/04/16 12:56:12;;;;;;;1.80;1.00;;;;;;;11.75;17.81;102099.63;10451386;28;20620;-83
2022/04/16 13:01:15;;;;;;;1.20;0.80;;;;;;;12.92;17.23;102089.63;10449386;28;20259;-84
2022/04/16 13:06:18;;;;;;;0.57;0.47;;;;;;;12.43;16.75;102091.56;10440828;28;20291;-83
2022/04/16 13:11:21;;;;;;;1.00;0.50;;;;;;;12.63;17.20;102078.41;10440728;28;20208;-83
2022/04/16 13:16:23;;;;;;;1.13;0.57;;;;;;;12.52;16.40;102077.19;10430529;28;20265;-84
2022/04/16 13:21:25;;;;;;;2.07;0.60;;;;;;;11.72;18.31;102071.78;10454363;28;20254;-82
2022/04/16 13:26:27;;;;;;;1.40;0.50;;;;;;;12.37;16.48;102075.84;10448265;28;20699;-81
2022/04/16 13:31:30;;;;;;;1.43;0.67;;;;;;;13.43;16.47;102062.25;10447912;28;20223;-81
2022/04/16 13:36:32;;;;;;;1.13;0.40;;;;;;;12.87;15.90;102057.56;10431577;28;20336;-82
2022/04/16 13:41:40;;;;;;;1.17;0.40;;;;;;;13.08;15.40;102063.97;10460680;28;20315;-82
2022/04/16 13:46:45;;;;;;;1.93;0.60;;;;;;;12.98;15.24;102058.75;10440804;28;20203;-83
2022/04/16 13:51:47;;;;;;;1.77;0.50;;;;;;;12.83;15.44;102042.28;10439850;28;20223;-82
2022/04/16 13:56:49;;;;;;;0.40;0.40;;;;;;;12.69;15.50;102042.66;10458955;28;20204;-82
2022/04/16 14:01:51;;;;;;;1.83;0.40;;;;;;;13.50;14.53;102026.47;10431300;28;20600;-82
2022/04/16 14:06:55;;;;;;;2.30;0.50;;;;;;;12.34;15.36;102025.09;10475416;28;20211;-82
2022/04/16 14:11:57;;;;;;;2.60;0.37;;;;;;;12.07;15.99;102025.75;10449489;28;20521;-82
2022/04/16 14:16:59;;;;;;;1.20;0.40;;;;;;;12.30;15.14;102024.94;10444537;28;20573;-82
2022/04/16 14:22:02;;;;;;;1.43;0.33;;;;;;;12.42;15.12;102020.44;10445154;28;20556;-81
2022/04/16 14:27:05;;;;;;;2.23;0.50;;;;;;;13.76;14.10;102007.59;10440072;28;20313;-83
2022/04/16 14:32:08;;;;;;;0.83;0.40;;;;;;;12.72;14.90;102013.34;10450415;28;20263;-82
2022/04/16 14:37:10;;;;;;;1.67;0.40;;;;;;;12.89;15.45;102018.81;10445055;28;20313;-82
2022/04/16 14:42:14;;;;;;;1.67;0.40;;;;;;;12.37;15.35;102024.38;10446686;28;20248;-83
2022/04/16 14:47:17;;;;;;;0.63;0.40;;;;;;;12.68;15.43;102007.50;10428833;28;20266;-82
2022/04/16 14:52:19;;;;;;;0.80;0.40;;;;;;;12.10;15.51;102011.59;10447056;28;20298;-82
2022/04/16 14:57:22;;;;;;;0.60;0.57;;;;;;;12.79;15.29;102004.97;10444799;28;20247;-83
2022/04/16 15:02:24;;;;;;;0.57;0.40;;;;;;;11.76;15.73;102001.31;10440462;28;20231;-82
2022/04/16 15:07:27;;;;;;;0.93;0.40;;;;;;;13.11;15.28;101983.13;10446215;28;20224;-82
2022/04/16 15:12:30;;;;;;;0.33;0.30;;;;;;;12.37;15.89;101990.91;10430913;28;20239;-83
2022/04/16 15:17:32;;;;;;;0.53;0.53;;;;;;;11.72;16.50;101996.69;10432629;28;20289;-82
2022/04/16 15:22:34;;;;;;;2.50;0.50;;;;;;;10.74;16.72;101995.25;10443118;28;20662;-83
2022/04/16 15:27:36;;;;;;;0.50;0.33;;;;;;;12.26;16.30;101980.28;10427167;28;20201;-83
2022/04/16 15:32:38;;;;;;;0.93;0.60;;;;;;;10.74;16.89;101978.13;10437977;28;20532;-82
2022/04/16 15:37:40;;;;;;;0.70;0.70;;;;;;;13.39;14.83;101972.56;10442697;28;20597;-82
2022/04/16 15:42:42;;;;;;;1.37;0.70;;;;;;;11.81;15.69;101969.69;10445608;28;20209;-87
2022/04/16 15:47:45;;;;;;;0.63;0.40;;;;;;;11.92;16.63;101978.63;10447619;28;20258;-83
2022/04/16 15:52:48;;;;;;;1.47;0.50;;;;;;;12.27;16.43;101974.19;10436747;28;20702;-83
2022/04/16 15:57:50;;;;;;;0.67;0.50;;;;;;;12.78;15.35;101971.03;10410215;28;20247;-82
2022/04/16 16:02:52;;;;;;;0.57;0.40;;;;;;;11.65;16.71;101968.66;10434461;28;20239;-83
2022/04/16 16:07:54;;;;;;;0.90;0.40;;;;;;;11.51;15.98;101979.56;10437739;28;20196;-84
2022/04/16 16:12:57;;;;;;;0.50;0.50;;;;;;;11.89;16.01;101983.03;10403379;28;20240;-84
2022/04/16 16:17:59;;;;;;;1.30;0.50;;;;;;;11.98;15.99;101969.53;10437872;28;20259;-83
2022/04/16 16:23:01;;;;;;;1.07;0.60;;;;;;;11.29;16.79;101973.03;10437287;28;20988;-83
2022/04/16 16:28:04;;;;;;;4.43;1.60;;;;;;;12.06;16.94;101972.63;10438641;28;20239;-82
2022/04/16 16:33:06;;;;;;;0.70;0.70;;;;;;;12.08;15.74;101958.81;10447597;28;20313;-86
2022/04/16 16:38:08;;;;;;;2.30;0.97;;;;;;;11.50;16.22;101966.47;10421148;28;20256;-83
2022/04/16 16:43:11;;;;;;;1.87;0.70;;;;;;;11.92;16.58;101959.47;10423447;28;20200;-87
2022/04/16 16:48:13;;;;;;;0.70;0.60;;;;;;;10.46;16.59;101967.19;10416621;28;20224;-87
2022/04/16 16:53:15;;;;;;;0.60;0.40;;;;;;;10.25;16.89;101963.44;10435201;28;20232;-83
2022/04/16 16:58:17;;;;;;;2.03;0.50;;;;;;;10.61;16.09;101962.94;10416393;28;20623;-83
2022/04/16 17:08:41;;;;;;;2.20;0.70;;;;;;;11.37;15.80;101947.63;10448323;28;20288;-83
2022/04/16 17:13:43;;;;;;;1.10;0.80;;;;;;;11.81;16.00;101943.13;10431447;28;20239;-83
2022/04/16 17:18:46;;;;;;;3.50;0.60;;;;;;;11.53;15.45;101945.78;10426243;28;20388;-83
2022/04/16 17:23:55;;;;;;;2.47;0.67;;;;;;;10.17;16.34;101942.38;10444211;28;20240;-83
2022/04/16 17:28:57;;;;;;;1.33;0.80;;;;;;;11.49;16.09;101944.81;10453708;28;20273;-83
2022/04/16 17:34:02;;;;;;;2.43;0.70;;;;;;;9.42;17.94;101951.56;10458615;28;20311;-82
2022/04/16 17:39:05;;;;;;;3.37;1.20;;;;;;;11.51;17.65;101946.13;10474843;28;20218;-84
2022/04/16 17:44:07;;;;;;;1.20;1.00;;;;;;;12.64;15.11;101951.38;10470900;28;20235;-83
2022/04/16 17:49:09;;;;;;;1.97;0.90;;;;;;;10.78;17.06;101962.00;10445206;28;20281;-84
2022/04/16 17:54:12;;;;;;;2.50;1.80;;;;;;;11.50;16.46;101957.91;10441589;28;20304;-83
2022/04/16 17:59:14;;;;;;;7.80;4.20;;;;;;;11.66;16.84;101958.91;10458154;28;20617;-83
2022/04/16 18:04:17;;;;;;;6.33;4.13;;;;;;;11.24;15.48;101970.34;10439557;28;20607;-83
2022/04/16 18:09:22;;;;;;;4.80;3.40;;;;;;;10.92;15.73;101971.13;10460641;28;20289;-87
2022/04/16 18:14:25;;;;;;;5.57;2.60;;;;;;;10.69;16.37;101975.50;10458455;28;20296;-83
2022/04/16 18:19:29;;;;;;;3.10;1.70;;;;;;;10.97;15.60;101973.75;10457438;28;20256;-85
2022/04/16 18:24:31;;;;;;;1.97;1.40;;;;;;;10.75;16.20;101974.09;10459120;28;20228;-84
2022/04/16 18:29:35;;;;;;;2.37;1.20;;;;;;;9.63;17.11;101978.19;10433840;28;20250;-83
2022/04/16 18:34:39;;;;;;;1.37;1.27;;;;;;;9.49;16.94;101977.53;10424514;28;20263;-82
2022/04/16 18:39:42;;;;;;;4.03;1.00;;;;;;;10.14;16.31;102000.03;10459161;28;20285;-83
2022/04/16 18:44:44;;;;;;;1.83;1.47;;;;;;;10.27;15.49;102003.84;10456602;28;20232;-83
2022/04/16 18:49:46;;;;;;;2.13;1.57;;;;;;;9.86;16.33;102010.97;10455443;28;20203;-85
2022/04/16 18:54:48;;;;;;;3.83;2.00;;;;;;;9.99;16.26;102022.53;10452897;28;20292;-83
2022/04/16 18:59:52;;;;;;;3.50;1.13;;;;;;;10.38;17.13;102022.22;10450877;28;20710;-83
2022/04/16 19:10:16;;;;;;;2.70;1.23;;;;;;;9.58;15.63;102029.59;10444063;28;20227;-83
2022/04/16 19:15:25;;;;;;;2.00;1.20;;;;;;;9.81;15.87;102033.91;10428129;28;20390;-83
2022/04/16 19:20:27;;;;;;;1.67;1.17;;;;;;;10.40;15.71;102036.16;10460760;28;20300;-84
2022/04/16 19:25:30;;;;;;;2.50;1.20;;;;;;;8.99;16.85;102043.41;10425634;28;20203;-83
2022/04/16 19:30:32;;;;;;;1.97;1.00;;;;;;;8.26;17.68;102058.31;10454071;28;20216;-83
2022/04/16 19:35:35;;;;;;;1.80;1.40;;;;;;;9.76;16.71;102050.34;10433603;28;20288;-83
2022/04/16 19:40:37;;;;;;;2.63;1.30;;;;;;;9.79;16.36;102052.53;10457237;28;20571;-83
2022/04/16 19:45:40;;;;;;;1.50;1.30;;;;;;;10.46;16.30;102057.56;10451617;28;20555;-81
2022/04/16 19:50:49;;;;;;;2.73;1.37;;;;;;;9.31;16.63;102049.84;10454952;28;20604;-82
2022/04/16 19:55:51;;;;;;;2.27;0.83;;;;;;;10.19;16.33;102058.81;10454035;28;20262;-82
2022/04/16 20:00:54;;;;;;;1.53;0.90;;;;;;;9.92;16.91;102060.06;10428606;28;20251;-86
2022/04/16 20:05:56;;;;;;;1.17;0.97;;;;;;;9.08;17.80;102061.31;10427908;28;20247;-84
2022/04/16 20:10:59;;;;;;;2.83;1.57;;;;;;;9.21;17.83;102048.97;10446996;28;20261;-84
2022/04/16 20:16:02;;;;;;;1.57;1.30;;;;;;;8.67;18.31;102064.56;10448302;28;20259;-86
2022/04/16 20:21:04;;;;;;;2.90;1.13;;;;;;;9.34;18.04;102054.88;10470992;28;20308;-82
2022/04/16 20:26:07;;;;;;;3.00;1.70;;;;;;;9.55;17.72;102058.72;10427371;28;20274;-82
2022/04/16 20:31:09;;;;;;;2.57;1.93;;;;;;;9.15;17.57;102052.28;10463264;28;20232;-85
2022/04/16 20:36:11;;;;;;;4.80;2.40;;;;;;;8.20;18.73;102059.63;10454129;28;20277;-83
2022/04/16 20:46:35;;;;;;;3.57;2.60;;;;;;;7.62;19.52;102050.00;10448082;28;20239;-83
2022/04/16 20:56:58;;;;;;;1.90;1.37;;;;;;;7.44;19.62;102054.72;10479491;28;20614;-83
2022/04/16 21:02:00;;;;;;;2.50;1.60;;;;;;;7.83;19.79;102060.88;10442807;28;20267;-83
2022/04/16 21:07:03;;;;;;;3.20;2.03;;;;;;;9.00;19.57;102050.78;10422453;28;20440;-82
2022/04/16 21:12:06;;;;;;;2.27;2.00;;;;;;;8.22;19.44;102055.31;10434771;28;20289;-84
2022/04/16 21:17:08;;;;;;;3.80;2.17;;;;;;;7.98;20.56;102052.78;10411080;28;20255;-83
2022/04/16 21:22:11;;;;;;;3.77;2.30;;;;;;;7.49;22.29;102061.41;10434827;28;20294;-84
2022/04/16 21:27:13;;;;;;;4.40;3.50;;;;;;;7.57;21.41;102057.81;10422469;28;20231;-84
2022/04/16 21:32:15;;;;;;;6.23;3.60;;;;;;;7.36;21.77;102061.13;10425009;28;20252;-83
2022/04/16 21:37:17;;;;;;;6.37;3.63;;;;;;;7.53;21.97;102059.63;10419214;28;20295;-83
2022/04/16 21:42:20;;;;;;;4.60;3.47;;;;;;;6.50;22.81;102062.16;10442335;28;20250;-83
2022/04/16 21:47:22;;;;;;;7.67;4.10;;;;;;;7.89;21.03;102066.09;10436782;28;20235;-83
2022/04/16 21:52:24;;;;;;;7.27;4.67;;;;;;;6.84;23.39;102067.38;10438184;28;20528;-86
2022/04/16 21:57:26;;;;;;;9.50;5.90;;;;;;;7.95;22.01;102075.34;10418823;28;20324;-84
2022/04/16 22:02:29;;;;;;;7.70;5.03;;;;;;;7.86;22.28;102077.25;10425448;28;20258;-84
2022/04/16 22:07:31;;;;;;;7.77;5.07;;;;;;;8.35;21.16;102077.09;10418401;28;20290;-83
2022/04/16 22:12:33;;;;;;;8.73;5.73;;;;;;;6.53;23.07;102079.38;10427300;28;20644;-84
2022/04/16 22:17:36;;;;;;;8.50;5.93;;;;;;;6.40;24.30;102088.69;10445840;28;20254;-84
2022/04/16 22:22:38;;;;;;;9.43;6.57;;;;;;;8.00;21.68;102083.72;10439890;28;20317;-82
2022/04/16 22:27:40;;;;;;;11.37;6.97;;;;;;;8.15;21.37;102084.16;10446224;28;20289;-82
2022/04/16 22:32:43;;;;;;;11.07;6.90;;;;;;;7.08;22.88;102083.03;10445880;28;20293;-83
2022/04/16 22:43:15;;;;;;;9.83;6.00;;;;;;;7.47;22.95;102067.41;10440068;28;20716;-84
2022/04/16 22:48:17;;;;;;;10.10;6.47;;;;;;;6.75;24.91;102058.81;10445920;28;20337;-84
2022/04/16 22:53:20;;;;;;;10.80;6.50;;;;;;;6.92;24.69;102059.00;10439159;28;20219;-83
2022/04/16 22:58:22;;;;;;;10.87;6.50;;;;;;;6.88;24.22;102063.63;10447054;28;20564;-83
2022/04/16 23:03:25;;;;;;;9.90;6.97;;;;;;;7.09;23.87;102047.84;10427488;28;20251;-86
2022/04/16 23:08:27;;;;;;;12.20;7.43;;;;;;;6.16;25.39;102054.81;10470160;28;20231;-84
2022/04/16 23:13:30;;;;;;;11.47;6.53;;;;;;;6.67;24.26;102056.72;10445220;28;20251;-84
2022/04/16 23:18:33;;;;;;;11.17;6.10;;;;;;;7.07;23.68;102050.16;10417660;28;20638;-86
2022/04/16 23:23:35;;;;;;;7.03;5.00;;;;;;;6.80;24.06;102050.19;10438959;28;20708;-84
2022/04/16 23:28:37;;;;;;;4.97;3.87;;;;;;;6.82;23.44;102047.88;10446062;28;20599;-84
2022/04/16 23:33:39;;;;;;;7.57;4.77;;;;;;;6.75;24.41;102053.13;10429373;28;20255;-85
2022/04/16 23:38:43;;;;;;;6.87;4.33;;;;;;;7.14;22.91;102046.91;10420020;28;20232;-85
2022/04/16 23:43:45;;;;;;;5.97;3.60;;;;;;;6.95;22.66;102030.00;10444571;28;20912;-84
2022/04/16 23:49:07;;;;;;;6.60;3.33;;;;;;;6.48;23.47;102028.47;10448901;28;20235;-84